Time,TemperatureF,DewpointF,PressureIn,WindDirection,WindDirectionDegrees,WindSpeedMPH,WindSpeedGustMPH,Humidity,HourlyPrecipIn,Conditions,Clouds,dailyrainin,SoftwareType,DateUTC
2013-08-05 00:02:00,58.0,57.0,-100.00,West,270,0.0,0.0,95,0.00,,,-99.99,,2013-08-05 04:02:00,
2013-08-05 00:12:00,57.0,56.0,-100.00,West,265,2.0,6.0,97,0.00,,,-99.99,,2013-08-05 04:12:00,
2013-08-05 00:22:00,57.0,57.0,-100.00,WSW,255,2.0,3.0,98,0.00,,,-99.99,,2013-08-05 04:22:00,
2013-08-05 00:32:00,58.0,57.0,-100.00,WSW,255,0.0,1.0,97,0.00,,,-99.99,,2013-08-05 04:32:00,
2013-08-05 00:43:00,57.0,56.0,-100.00,East,100,0.0,2.0,96,0.00,,,-99.99,,2013-08-05 04:43:00,
2013-08-05 00:52:00,57.0,56.0,-100.00,East,95,0.0,0.0,97,0.00,,,-99.99,,2013-08-05 04:52:00,
2013-08-05 01:02:00,56.0,56.0,-100.00,WSW,250,1.0,1.0,98,0.00,,,-99.99,,2013-08-05 05:02:00,
2013-08-05 01:12:00,56.0,56.0,-100.00,West,270,1.0,1.0,99,0.00,,,-99.99,,2013-08-05 05:12:00,
2013-08-05 01:22:00,56.0,56.0,-100.00,West,270,1.0,1.0,99,0.00,,,-99.99,,2013-08-05 05:22:00,
2013-08-05 01:32:00,56.0,-99.9,-100.00,WNW,285,1.0,2.0,-999,0.00,,,-99.99,,2013-08-05 05:32:00,
2013-08-05 01:43:00,56.0,-99.9,-100.00,WNW,285,1.0,2.0,-999,0.00,,,-99.99,,2013-08-05 05:43:00,
2013-08-05 01:53:00,56.0,56.0,-100.00,WSW,250,1.0,2.0,99,0.00,,,-99.99,,2013-08-05 05:53:00,
2013-08-05 02:02:00,56.0,56.0,-100.00,West,265,2.0,2.0,99,0.00,,,-99.99,,2013-08-05 06:02:00,
2013-08-05 02:12:00,56.0,56.0,-100.00,WSW,250,1.0,2.0,99,0.00,,,-99.99,,2013-08-05 06:12:00,
2013-08-05 02:22:00,56.0,56.0,-100.00,West,265,1.0,1.0,99,0.00,,,-99.99,,2013-08-05 06:22:00,
2013-08-05 02:32:00,56.0,56.0,-100.00,WSW,250,2.0,3.0,99,0.00,,,-99.99,,2013-08-05 06:32:00,
2013-08-05 02:43:00,55.0,55.0,-100.00,WSW,255,3.0,4.0,99,0.00,,,-99.99,,2013-08-05 06:43:00,
2013-08-05 02:52:00,55.0,-99.9,-100.00,WSW,255,1.0,2.0,-999,0.00,,,-99.99,,2013-08-05 06:52:00,
2013-08-05 03:02:00,55.0,-99.9,-100.00,West,260,0.0,2.0,-999,0.00,,,-99.99,,2013-08-05 07:02:00,
2013-08-05 03:12:00,55.0,-99.9,-100.00,WSW,250,1.0,2.0,-999,0.00,,,-99.99,,2013-08-05 07:12:00,
2013-08-05 03:22:00,55.0,-99.9,-100.00,WSW,245,2.0,3.0,-999,0.00,,,-99.99,,2013-08-05 07:22:00,
2013-08-05 03:33:00,55.0,-99.9,-100.00,WSW,245,2.0,3.0,-999,0.00,,,-99.99,,2013-08-05 07:33:00,
2013-08-05 03:43:00,55.0,-99.9,-100.00,WSW,240,2.0,3.0,-999,0.00,,,-99.99,,2013-08-05 07:43:00,
2013-08-05 03:53:00,54.0,-99.9,-100.00,WSW,250,2.0,3.0,-999,0.00,,,-99.99,,2013-08-05 07:53:00,
2013-08-05 04:02:00,55.0,-99.9,-100.00,WSW,240,1.0,2.0,-999,0.00,,,-99.99,,2013-08-05 08:02:00,
2013-08-05 04:12:00,55.0,-99.9,-100.00,WSW,255,0.0,1.0,-999,0.00,,,-99.99,,2013-08-05 08:12:00,
2013-08-05 04:22:00,54.0,-99.9,-100.00,WNW,285,0.0,0.0,-999,0.00,,,-99.99,,2013-08-05 08:22:00,
2013-08-05 04:34:00,54.0,-99.9,-100.00,West,275,0.0,0.0,-999,0.00,,,-99.99,,2013-08-05 08:34:00,
2013-08-05 04:53:00,54.0,-99.9,-100.00,WNW,285,0.0,0.0,-999,0.00,,,-99.99,,2013-08-05 08:53:00,
2013-08-05 05:20:00,54.0,-99.9,-100.00,WNW,285,0.0,1.0,-999,0.00,,,-99.99,,2013-08-05 09:20:00,
2013-08-05 05:29:00,53.0,-99.9,-100.00,SW,225,0.0,0.0,-999,0.00,,,-99.99,,2013-08-05 09:29:00,
2013-08-05 05:44:00,53.0,-99.9,-100.00,SW,225,0.0,0.0,-999,0.00,,,-99.99,,2013-08-05 09:44:00,
2013-08-05 05:50:00,53.0,-99.9,-100.00,SW,225,0.0,0.0,-999,0.00,,,-99.99,,2013-08-05 09:50:00,
2013-08-05 06:12:00,53.0,-99.9,-100.00,ESE,110,0.0,4.0,-999,0.00,,,-99.99,,2013-08-05 10:12:00,
2013-08-05 06:19:00,52.0,-99.9,-100.00,SE,135,0.0,2.0,-999,0.00,,,-99.99,,2013-08-05 10:19:00,
2013-08-05 06:28:00,52.0,-99.9,-100.00,South,170,0.0,0.0,-999,0.00,,,-99.99,,2013-08-05 10:28:00,
2013-08-05 06:38:00,51.0,-99.9,-100.00,West,280,1.0,2.0,-999,0.00,,,-99.99,,2013-08-05 10:38:00,
2013-08-05 06:50:00,52.0,-99.9,-100.00,West,270,0.0,2.0,-999,0.00,,,-99.99,,2013-08-05 10:50:00,
2013-08-05 07:13:00,50.0,-99.9,-100.00,SW,225,1.0,2.0,-999,0.00,,,-99.99,,2013-08-05 11:13:00,
2013-08-05 07:31:00,51.0,-99.9,-100.00,WSW,250,1.0,2.0,-999,0.00,,,-99.99,,2013-08-05 11:31:00,
2013-08-05 07:38:00,52.0,-99.9,-100.00,ENE,70,0.0,2.0,-999,0.00,,,-99.99,,2013-08-05 11:38:00,
2013-08-05 07:55:00,52.0,-99.9,-100.00,West,280,0.0,1.0,-999,0.00,,,-99.99,,2013-08-05 11:55:00,
2013-08-05 08:10:00,54.0,-99.9,-100.00,East,100,0.0,1.0,-999,0.00,,,-99.99,,2013-08-05 12:10:00,
2013-08-05 08:17:00,56.0,-99.9,-100.00,East,100,0.0,1.0,-999,0.00,,,-99.99,,2013-08-05 12:17:00,
2013-08-05 08:34:00,58.0,-99.9,-100.00,SSE,160,0.0,1.0,-999,0.00,,,-99.99,,2013-08-05 12:34:00,
2013-08-05 08:54:00,58.0,-99.9,-100.00,SSE,165,0.0,2.0,-999,0.00,,,-99.99,,2013-08-05 12:54:00,
2013-08-05 09:02:00,59.0,-99.9,-100.00,SSE,150,0.0,1.0,-999,0.00,,,-99.99,,2013-08-05 13:02:00,
2013-08-05 09:13:00,62.0,-99.9,-100.00,SE,145,0.0,1.0,-999,0.00,,,-99.99,,2013-08-05 13:13:00,
2013-08-05 09:30:00,62.0,-99.9,-100.00,South,180,0.0,0.0,-999,0.00,,,-99.99,,2013-08-05 13:30:00,
2013-08-05 09:39:00,63.0,62.0,-100.00,SSE,150,0.0,1.0,96,0.00,,,-99.99,,2013-08-05 13:39:00,
2013-08-05 09:54:00,66.0,62.0,-100.00,East,100,0.0,2.0,86,0.00,,,-99.99,,2013-08-05 13:54:00,
2013-08-05 10:06:00,67.0,62.0,-100.00,South,190,0.0,1.0,83,0.00,,,-99.99,,2013-08-05 14:06:00,
2013-08-05 10:17:00,67.0,60.0,-100.00,South,185,0.0,4.0,77,0.00,,,-99.99,,2013-08-05 14:17:00,
2013-08-05 10:38:00,68.0,61.0,-100.00,East,95,0.0,1.0,76,0.00,,,-99.99,,2013-08-05 14:38:00,
2013-08-05 10:48:00,68.0,59.0,-100.00,South,185,1.0,2.0,72,0.00,,,-99.99,,2013-08-05 14:48:00,
2013-08-05 10:53:00,70.0,54.0,-100.00,SE,145,1.0,2.0,58,0.00,,,-99.99,,2013-08-05 14:53:00,
2013-08-05 11:08:00,70.0,54.0,-100.00,SE,145,1.0,2.0,58,0.00,,,-99.99,,2013-08-05 15:08:00,
2013-08-05 11:25:00,71.0,55.0,-100.00,SE,140,1.0,4.0,55,0.00,,,-99.99,,2013-08-05 15:25:00,
2013-08-05 11:57:00,72.0,54.0,-100.00,SSE,165,2.0,4.0,52,0.00,,,-99.99,,2013-08-05 15:57:00,
2013-08-05 12:09:00,73.0,54.0,-100.00,SW,220,1.0,5.0,52,0.00,,,-99.99,,2013-08-05 16:09:00,
2013-08-05 12:33:00,73.0,56.0,-100.00,SSE,160,4.0,6.0,54,0.00,,,-99.99,,2013-08-05 16:33:00,
2013-08-05 12:45:00,73.0,55.0,-100.00,South,185,3.0,7.0,54,0.00,,,-99.99,,2013-08-05 16:45:00,
2013-08-05 13:06:00,72.0,55.0,-100.00,South,190,4.0,6.0,54,0.00,,,-99.99,,2013-08-05 17:06:00,
2013-08-05 13:22:00,73.0,56.0,-100.00,South,175,5.0,6.0,54,0.00,,,-99.99,,2013-08-05 17:22:00,
2013-08-05 13:37:00,74.0,57.0,-100.00,SSE,155,6.0,10.0,55,0.00,,,-99.99,,2013-08-05 17:37:00,
2013-08-05 13:48:00,74.0,56.0,-100.00,SSE,150,4.0,9.0,53,0.00,,,-99.99,,2013-08-05 17:48:00,
2013-08-05 14:08:00,74.0,53.0,-100.00,South,185,7.0,9.0,47,0.00,,,-99.99,,2013-08-05 18:08:00,
2013-08-05 14:26:00,74.0,54.0,-100.00,SSW,195,4.0,8.0,48,0.00,,,-99.99,,2013-08-05 18:26:00,
2013-08-05 14:53:00,75.0,54.0,-100.00,SSW,195,3.0,11.0,47,0.00,,,-99.99,,2013-08-05 18:53:00,
2013-08-05 15:14:00,75.0,56.0,-100.00,South,185,8.0,12.0,52,0.00,,,-99.99,,2013-08-05 19:14:00,
2013-08-05 15:39:00,75.0,58.0,-100.00,South,180,4.0,12.0,54,0.00,,,-99.99,,2013-08-05 19:39:00,
2013-08-05 15:50:00,75.0,57.0,-100.00,South,175,6.0,9.0,54,0.00,,,-99.99,,2013-08-05 19:50:00,
2013-08-05 16:28:00,74.0,58.0,-100.00,South,180,7.0,10.0,56,0.00,,,-99.99,,2013-08-05 20:28:00,
2013-08-05 16:38:00,74.0,59.0,-100.00,South,170,6.0,9.0,59,0.00,,,-99.99,,2013-08-05 20:38:00,
2013-08-05 16:48:00,73.0,59.0,-100.00,South,190,3.0,7.0,61,0.00,,,-99.99,,2013-08-05 20:48:00,
2013-08-05 17:18:00,73.0,60.0,-100.00,South,175,4.0,7.0,64,0.00,,,-99.99,,2013-08-05 21:18:00,
2013-08-05 17:34:00,73.0,60.0,-100.00,South,170,4.0,7.0,63,0.00,,,-99.99,,2013-08-05 21:34:00,
2013-08-05 17:47:00,73.0,61.0,-100.00,South,175,4.0,9.0,66,0.00,,,-99.99,,2013-08-05 21:47:00,
2013-08-05 17:53:00,72.0,61.0,-100.00,South,175,3.0,6.0,67,0.00,,,-99.99,,2013-08-05 21:53:00,
2013-08-05 18:05:00,72.0,62.0,-100.00,South,170,4.0,6.0,71,0.00,,,-99.99,,2013-08-05 22:05:00,
2013-08-05 18:15:00,72.0,62.0,-100.00,South,170,4.0,7.0,71,0.00,,,-99.99,,2013-08-05 22:15:00,
2013-08-05 18:37:00,71.0,63.0,-100.00,SSE,165,2.0,4.0,74,0.00,,,-99.99,,2013-08-05 22:37:00,
2013-08-05 18:44:00,71.0,63.0,-100.00,SSE,165,2.0,4.0,74,0.00,,,-99.99,,2013-08-05 22:44:00,
2013-08-05 18:53:00,71.0,63.0,-100.00,South,170,3.0,6.0,75,0.00,,,-99.99,,2013-08-05 22:53:00,
2013-08-05 19:07:00,71.0,63.0,-100.00,SSE,165,4.0,6.0,76,0.00,,,-99.99,,2013-08-05 23:07:00,
2013-08-05 19:16:00,71.0,63.0,-100.00,SSE,165,3.0,6.0,77,0.00,,,-99.99,,2013-08-05 23:16:00,
2013-08-05 19:27:00,71.0,63.0,-100.00,SW,215,2.0,4.0,76,0.00,,,-99.99,,2013-08-05 23:27:00,
2013-08-05 19:33:00,71.0,64.0,-100.00,South,175,1.0,4.0,77,0.00,,,-99.99,,2013-08-05 23:33:00,
2013-08-05 19:46:00,71.0,64.0,-100.00,South,180,1.0,5.0,79,0.00,,,-99.99,,2013-08-05 23:46:00,
2013-08-05 20:02:00,70.0,63.0,-100.00,SSE,165,4.0,5.0,77,0.00,,,-99.99,,2013-08-06 00:02:00,
2013-08-05 20:15:00,70.0,63.0,-100.00,SSE,165,2.0,7.0,79,0.00,,,-99.99,,2013-08-06 00:15:00,
2013-08-05 20:24:00,69.0,63.0,-100.00,SSE,160,4.0,6.0,83,0.00,,,-99.99,,2013-08-06 00:24:00,
2013-08-05 20:37:00,68.0,64.0,-100.00,SSE,160,3.0,4.0,84,0.00,,,-99.99,,2013-08-06 00:37:00,
2013-08-05 20:45:00,69.0,63.0,-100.00,SE,145,4.0,8.0,81,0.00,,,-99.99,,2013-08-06 00:45:00,
2013-08-05 20:57:00,68.0,63.0,-100.00,SSE,150,4.0,4.0,82,0.00,,,-99.99,,2013-08-06 00:57:00,
2013-08-05 21:09:00,68.0,63.0,-100.00,SE,145,3.0,6.0,82,0.00,,,-99.99,,2013-08-06 01:09:00,
2013-08-05 21:40:00,67.0,62.0,-100.00,SSE,150,3.0,9.0,84,0.00,,,-99.99,,2013-08-06 01:40:00,
2013-08-05 21:49:00,67.0,63.0,-100.00,SSE,150,4.0,5.0,86,0.00,,,-99.99,,2013-08-06 01:49:00,
2013-08-05 22:09:00,67.0,62.0,-100.00,SSE,155,3.0,6.0,85,0.00,,,-99.99,,2013-08-06 02:09:00,
2013-08-05 22:15:00,66.0,62.0,-100.00,SSE,150,4.0,5.0,87,0.00,,,-99.99,,2013-08-06 02:15:00,
2013-08-05 22:32:00,66.0,63.0,-100.00,SSE,150,4.0,6.0,89,0.00,,,-99.99,,2013-08-06 02:32:00,
2013-08-05 22:46:00,66.0,63.0,-100.00,SSE,155,4.0,4.0,88,0.00,,,-99.99,,2013-08-06 02:46:00,
2013-08-05 23:02:00,66.0,62.0,-100.00,SSE,150,4.0,6.0,86,0.00,,,-99.99,,2013-08-06 03:02:00,
2013-08-05 23:26:00,67.0,62.0,-100.00,SSE,160,4.0,6.0,86,0.00,,,-99.99,,2013-08-06 03:26:00,
2013-08-05 23:35:00,66.0,62.0,-100.00,South,180,5.0,7.0,86,0.00,,,-99.99,,2013-08-06 03:35:00,
2013-08-05 23:52:00,66.0,62.0,-100.00,South,175,4.0,7.0,88,0.00,,,-99.99,,2013-08-06 03:52:00,